sensor_id;sensor_type;location;lat;lon;timestamp;P1;durP1;ratioP1;P2;durP2;ratioP2
9234;SDS011;4652;42.716;23.218;2022-12-31T00:04:33;31.17;;;21.23;;
9234;SDS011;4652;42.716;23.218;2022-12-31T00:11:16;34.70;;;22.03;;
9234;SDS011;4652;42.716;23.218;2022-12-31T00:17:59;30.90;;;22.97;;
9234;SDS011;4652;42.716;23.218;2022-12-31T00:24:41;32.13;;;22.40;;
9234;SDS011;4652;42.716;23.218;2022-12-31T00:31:26;30.90;;;21.57;;
9234;SDS011;4652;42.716;23.218;2022-12-31T00:38:09;31.87;;;23.33;;
9234;SDS011;4652;42.716;23.218;2022-12-31T00:44:51;31.27;;;21.27;;
9234;SDS011;4652;42.716;23.218;2022-12-31T00:51:35;28.17;;;20.43;;
9234;SDS011;4652;42.716;23.218;2022-12-31T00:58:17;26.20;;;19.27;;
9234;SDS011;4652;42.716;23.218;2022-12-31T01:04:59;43.97;;;27.77;;
9234;SDS011;4652;42.716;23.218;2022-12-31T01:11:43;67.53;;;40.03;;
9234;SDS011;4652;42.716;23.218;2022-12-31T01:18:25;68.97;;;40.00;;
9234;SDS011;4652;42.716;23.218;2022-12-31T01:25:07;57.20;;;37.07;;
9234;SDS011;4652;42.716;23.218;2022-12-31T01:31:51;58.63;;;36.00;;
9234;SDS011;4652;42.716;23.218;2022-12-31T01:38:33;58.67;;;37.13;;
9234;SDS011;4652;42.716;23.218;2022-12-31T01:45:16;62.13;;;39.53;;
9234;SDS011;4652;42.716;23.218;2022-12-31T01:52:01;65.50;;;38.57;;
9234;SDS011;4652;42.716;23.218;2022-12-31T01:58:47;58.50;;;38.00;;
9234;SDS011;4652;42.716;23.218;2022-12-31T02:08:01;55.47;;;35.67;;
9234;SDS011;4652;42.716;23.218;2022-12-31T02:14:45;46.43;;;33.13;;
9234;SDS011;4652;42.716;23.218;2022-12-31T02:21:41;48.93;;;30.97;;
9234;SDS011;4652;42.716;23.218;2022-12-31T02:28:41;44.97;;;27.67;;
9234;SDS011;4652;42.716;23.218;2022-12-31T02:35:42;41.70;;;27.73;;
9234;SDS011;4652;42.716;23.218;2022-12-31T02:42:29;44.10;;;27.77;;
9234;SDS011;4652;42.716;23.218;2022-12-31T02:49:12;40.57;;;26.63;;
9234;SDS011;4652;42.716;23.218;2022-12-31T02:56:04;37.03;;;24.27;;
9234;SDS011;4652;42.716;23.218;2022-12-31T03:02:50;35.50;;;23.53;;
9234;SDS011;4652;42.716;23.218;2022-12-31T03:09:35;33.20;;;20.30;;
9234;SDS011;4652;42.716;23.218;2022-12-31T03:16:19;28.77;;;18.90;;
9234;SDS011;4652;42.716;23.218;2022-12-31T03:23:03;31.43;;;18.93;;
9234;SDS011;4652;42.716;23.218;2022-12-31T08:08:05;19.93;;;17.50;;
9234;SDS011;4652;42.716;23.218;2022-12-31T08:14:55;24.73;;;20.70;;
9234;SDS011;4652;42.716;23.218;2022-12-31T08:21:39;24.70;;;20.57;;
9234;SDS011;4652;42.716;23.218;2022-12-31T08:28:33;29.90;;;24.50;;
9234;SDS011;4652;42.716;23.218;2022-12-31T08:35:32;30.50;;;23.37;;
9234;SDS011;4652;42.716;23.218;2022-12-31T08:42:29;28.87;;;23.47;;
9234;SDS011;4652;42.716;23.218;2022-12-31T08:49:18;38.97;;;30.00;;
9234;SDS011;4652;42.716;23.218;2022-12-31T08:56:02;39.10;;;29.67;;
9234;SDS011;4652;42.716;23.218;2022-12-31T09:02:56;41.47;;;30.47;;
9234;SDS011;4652;42.716;23.218;2022-12-31T09:09:50;35.80;;;26.07;;
9234;SDS011;4652;42.716;23.218;2022-12-31T09:16:41;42.63;;;29.00;;
9234;SDS011;4652;42.716;23.218;2022-12-31T09:23:31;58.57;;;38.60;;
9234;SDS011;4652;42.716;23.218;2022-12-31T09:30:15;50.53;;;38.03;;
9234;SDS011;4652;42.716;23.218;2022-12-31T09:37:01;59.23;;;44.10;;
9234;SDS011;4652;42.716;23.218;2022-12-31T09:51:27;54.50;;;38.57;;
9234;SDS011;4652;42.716;23.218;2022-12-31T09:58:15;55.83;;;41.93;;
9234;SDS011;4652;42.716;23.218;2022-12-31T10:05:12;63.90;;;46.03;;
9234;SDS011;4652;42.716;23.218;2022-12-31T10:12:17;63.23;;;45.47;;
9234;SDS011;4652;42.716;23.218;2022-12-31T10:19:31;68.53;;;50.20;;
9234;SDS011;4652;42.716;23.218;2022-12-31T10:26:50;82.93;;;59.30;;
9234;SDS011;4652;42.716;23.218;2022-12-31T10:33:48;81.97;;;60.00;;
9234;SDS011;4652;42.716;23.218;2022-12-31T11:03:07;83.17;;;58.63;;
9234;SDS011;4652;42.716;23.218;2022-12-31T11:17:26;79.43;;;55.83;;
9234;SDS011;4652;42.716;23.218;2022-12-31T11:24:26;76.33;;;55.47;;
9234;SDS011;4652;42.716;23.218;2022-12-31T11:31:20;68.67;;;52.10;;
9234;SDS011;4652;42.716;23.218;2022-12-31T11:38:15;77.43;;;60.77;;
9234;SDS011;4652;42.716;23.218;2022-12-31T11:45:12;67.27;;;49.57;;
9234;SDS011;4652;42.716;23.218;2022-12-31T11:51:59;65.03;;;48.73;;
9234;SDS011;4652;42.716;23.218;2022-12-31T11:58:55;62.33;;;48.53;;
9234;SDS011;4652;42.716;23.218;2022-12-31T12:05:39;158.57;;;103.60;;
9234;SDS011;4652;42.716;23.218;2022-12-31T12:12:22;49.20;;;38.20;;
9234;SDS011;4652;42.716;23.218;2022-12-31T12:19:05;55.20;;;39.50;;
9234;SDS011;4652;42.716;23.218;2022-12-31T12:25:57;54.80;;;37.87;;
9234;SDS011;4652;42.716;23.218;2022-12-31T12:32:39;44.67;;;34.73;;
9234;SDS011;4652;42.716;23.218;2022-12-31T12:39:33;43.57;;;34.67;;
9234;SDS011;4652;42.716;23.218;2022-12-31T12:46:22;35.83;;;28.50;;
9234;SDS011;4652;42.716;23.218;2022-12-31T13:00:18;31.60;;;24.83;;
9234;SDS011;4652;42.716;23.218;2022-12-31T13:07:07;29.87;;;23.87;;
9234;SDS011;4652;42.716;23.218;2022-12-31T13:13:58;24.83;;;17.60;;
9234;SDS011;4652;42.716;23.218;2022-12-31T13:20:52;30.83;;;22.13;;
9234;SDS011;4652;42.716;23.218;2022-12-31T13:27:44;26.97;;;20.63;;
9234;SDS011;4652;42.716;23.218;2022-12-31T13:34:30;22.77;;;17.53;;
9234;SDS011;4652;42.716;23.218;2022-12-31T13:41:15;24.97;;;21.63;;
9234;SDS011;4652;42.716;23.218;2022-12-31T14:08:20;12.53;;;11.23;;
9234;SDS011;4652;42.716;23.218;2022-12-31T14:15:06;13.43;;;12.03;;
9234;SDS011;4652;42.716;23.218;2022-12-31T14:22:00;18.27;;;14.40;;
9234;SDS011;4652;42.716;23.218;2022-12-31T14:28:52;16.40;;;13.90;;
9234;SDS011;4652;42.716;23.218;2022-12-31T14:35:51;29.17;;;20.40;;
9234;SDS011;4652;42.716;23.218;2022-12-31T14:42:43;30.17;;;19.30;;
9234;SDS011;4652;42.716;23.218;2022-12-31T14:49:40;43.33;;;30.23;;
9234;SDS011;4652;42.716;23.218;2022-12-31T14:56:36;18.03;;;13.87;;
9234;SDS011;4652;42.716;23.218;2022-12-31T15:03:22;23.13;;;14.47;;
9234;SDS011;4652;42.716;23.218;2022-12-31T15:10:11;16.33;;;11.27;;
9234;SDS011;4652;42.716;23.218;2022-12-31T15:16:58;14.30;;;10.27;;
9234;SDS011;4652;42.716;23.218;2022-12-31T15:23:49;15.50;;;10.73;;
9234;SDS011;4652;42.716;23.218;2022-12-31T15:30:34;12.53;;;8.50;;
9234;SDS011;4652;42.716;23.218;2022-12-31T15:37:26;10.83;;;8.20;;
9234;SDS011;4652;42.716;23.218;2022-12-31T15:44:13;11.00;;;8.27;;
9234;SDS011;4652;42.716;23.218;2022-12-31T15:51:03;12.90;;;8.07;;
9234;SDS011;4652;42.716;23.218;2022-12-31T15:57:52;8.23;;;6.50;;
9234;SDS011;4652;42.716;23.218;2022-12-31T16:04:36;11.50;;;6.97;;
9234;SDS011;4652;42.716;23.218;2022-12-31T16:11:26;9.70;;;7.63;;
9234;SDS011;4652;42.716;23.218;2022-12-31T16:18:09;8.63;;;6.50;;
9234;SDS011;4652;42.716;23.218;2022-12-31T16:24:54;12.50;;;7.63;;
9234;SDS011;4652;42.716;23.218;2022-12-31T16:31:38;13.27;;;8.77;;
9234;SDS011;4652;42.716;23.218;2022-12-31T16:38:29;10.60;;;7.77;;
9234;SDS011;4652;42.716;23.218;2022-12-31T16:45:18;13.07;;;9.27;;
9234;SDS011;4652;42.716;23.218;2022-12-31T16:52:18;17.60;;;12.50;;
9234;SDS011;4652;42.716;23.218;2022-12-31T16:59:11;25.17;;;17.13;;
9234;SDS011;4652;42.716;23.218;2022-12-31T17:06:01;22.50;;;14.17;;
9234;SDS011;4652;42.716;23.218;2022-12-31T17:12:54;21.93;;;15.63;;
9234;SDS011;4652;42.716;23.218;2022-12-31T17:19:39;21.53;;;14.47;;
9234;SDS011;4652;42.716;23.218;2022-12-31T17:26:24;17.47;;;12.03;;
9234;SDS011;4652;42.716;23.218;2022-12-31T17:33:28;16.73;;;11.50;;
9234;SDS011;4652;42.716;23.218;2022-12-31T17:40:18;14.43;;;9.60;;
9234;SDS011;4652;42.716;23.218;2022-12-31T17:47:16;11.03;;;9.00;;
9234;SDS011;4652;42.716;23.218;2022-12-31T17:54:00;16.77;;;12.00;;
9234;SDS011;4652;42.716;23.218;2022-12-31T18:00:42;12.73;;;10.03;;
9234;SDS011;4652;42.716;23.218;2022-12-31T18:07:24;12.47;;;8.80;;
9234;SDS011;4652;42.716;23.218;2022-12-31T18:14:09;13.40;;;10.00;;
9234;SDS011;4652;42.716;23.218;2022-12-31T18:20:52;18.20;;;11.40;;
9234;SDS011;4652;42.716;23.218;2022-12-31T18:27:36;14.93;;;10.87;;
9234;SDS011;4652;42.716;23.218;2022-12-31T18:34:22;17.43;;;12.87;;
9234;SDS011;4652;42.716;23.218;2022-12-31T18:41:05;13.03;;;8.97;;
9234;SDS011;4652;42.716;23.218;2022-12-31T18:47:47;12.03;;;9.07;;
9234;SDS011;4652;42.716;23.218;2022-12-31T18:54:30;10.17;;;7.80;;
9234;SDS011;4652;42.716;23.218;2022-12-31T19:01:21;11.17;;;8.10;;
9234;SDS011;4652;42.716;23.218;2022-12-31T19:08:06;14.37;;;10.80;;
9234;SDS011;4652;42.716;23.218;2022-12-31T19:16:44;14.37;;;10.83;;
9234;SDS011;4652;42.716;23.218;2022-12-31T19:23:26;19.70;;;12.37;;
9234;SDS011;4652;42.716;23.218;2022-12-31T19:30:10;17.23;;;12.43;;
9234;SDS011;4652;42.716;23.218;2022-12-31T19:36:59;13.67;;;8.83;;
9234;SDS011;4652;42.716;23.218;2022-12-31T19:43:41;15.33;;;11.20;;
9234;SDS011;4652;42.716;23.218;2022-12-31T19:50:24;13.57;;;9.40;;
9234;SDS011;4652;42.716;23.218;2022-12-31T19:57:10;10.00;;;8.47;;
9234;SDS011;4652;42.716;23.218;2022-12-31T20:32:05;14.27;;;10.27;;
9234;SDS011;4652;42.716;23.218;2022-12-31T20:38:47;11.67;;;8.73;;
9234;SDS011;4652;42.716;23.218;2022-12-31T20:45:29;10.37;;;7.97;;
9234;SDS011;4652;42.716;23.218;2022-12-31T20:52:12;10.20;;;7.70;;
9234;SDS011;4652;42.716;23.218;2022-12-31T20:58:54;12.83;;;7.90;;
9234;SDS011;4652;42.716;23.218;2022-12-31T21:05:37;11.67;;;8.80;;
9234;SDS011;4652;42.716;23.218;2022-12-31T21:12:20;10.83;;;8.20;;
9234;SDS011;4652;42.716;23.218;2022-12-31T21:19:20;10.73;;;7.43;;
9234;SDS011;4652;42.716;23.218;2022-12-31T21:26:02;9.70;;;6.80;;
9234;SDS011;4652;42.716;23.218;2022-12-31T21:32:46;11.67;;;8.07;;
9234;SDS011;4652;42.716;23.218;2022-12-31T21:39:28;18.27;;;12.03;;
9234;SDS011;4652;42.716;23.218;2022-12-31T21:46:10;17.60;;;12.53;;
9234;SDS011;4652;42.716;23.218;2022-12-31T21:52:54;20.83;;;15.70;;
9234;SDS011;4652;42.716;23.218;2022-12-31T21:59:36;22.57;;;15.73;;
9234;SDS011;4652;42.716;23.218;2022-12-31T22:06:35;36.63;;;22.57;;
9234;SDS011;4652;42.716;23.218;2022-12-31T22:13:19;22.87;;;15.47;;
9234;SDS011;4652;42.716;23.218;2022-12-31T22:20:01;22.70;;;14.93;;
9234;SDS011;4652;42.716;23.218;2022-12-31T22:26:43;25.20;;;15.60;;
9234;SDS011;4652;42.716;23.218;2022-12-31T22:33:26;55.83;;;33.80;;
9234;SDS011;4652;42.716;23.218;2022-12-31T22:40:09;63.27;;;40.40;;
9234;SDS011;4652;42.716;23.218;2022-12-31T22:46:52;58.70;;;37.53;;
9234;SDS011;4652;42.716;23.218;2022-12-31T22:53:37;61.33;;;36.60;;
9234;SDS011;4652;42.716;23.218;2022-12-31T23:00:20;87.73;;;48.97;;
9234;SDS011;4652;42.716;23.218;2022-12-31T23:07:17;82.90;;;49.27;;
9234;SDS011;4652;42.716;23.218;2022-12-31T23:14:01;98.40;;;55.80;;
9234;SDS011;4652;42.716;23.218;2022-12-31T23:21:02;110.37;;;62.87;;
9234;SDS011;4652;42.716;23.218;2022-12-31T23:28:08;100.53;;;56.43;;
9234;SDS011;4652;42.716;23.218;2022-12-31T23:34:53;90.13;;;53.70;;
9234;SDS011;4652;42.716;23.218;2022-12-31T23:41:35;73.13;;;42.93;;
9234;SDS011;4652;42.716;23.218;2022-12-31T23:48:17;31.23;;;20.40;;
9234;SDS011;4652;42.716;23.218;2022-12-31T23:55:01;32.30;;;20.83;;
